Time;durP1;ratioP1;P1;durP2;ratioP2;P2;SDS_P1;SDS_P2;PMS_P1;PMS_P2;Temp;Humidity;BMP_temperature;BMP_pressure;BME280_temperature;BME280_humidity;BME280_pressure;Samples;Min_cycle;Max_cycle;Signal;HPM_P1;HPM_P2
2023/12/27 00:02:02;;;;;;;8.95;3.38;;;;;;;8.92;48.41;101757.31;5023581;28;20493;-72
2023/12/27 00:04:31;;;;;;;7.45;2.60;;;;;;;8.89;48.25;101758.44;5016731;28;20121;-72
2023/12/27 00:06:59;;;;;;;7.00;2.90;;;;;;;8.86;48.51;101749.56;5025477;28;20125;-72
2023/12/27 00:09:27;;;;;;;7.22;2.70;;;;;;;8.84;48.47;101755.09;5024927;28;20729;-72
2023/12/27 00:11:55;;;;;;;8.75;3.25;;;;;;;8.81;48.36;101754.44;5024242;28;20132;-72
2023/12/27 00:14:23;;;;;;;6.20;2.70;;;;;;;8.78;48.65;101755.53;5026129;28;20057;-72
2023/12/27 00:16:51;;;;;;;8.68;2.70;;;;;;;8.75;48.15;101747.56;5021371;28;20810;-72
2023/12/27 00:19:21;;;;;;;6.25;2.70;;;;;;;8.73;48.32;101756.81;5019556;28;20456;-71
2023/12/27 00:21:49;;;;;;;8.02;2.97;;;;;;;8.68;48.12;101757.09;5017606;28;20042;-72
2023/12/27 00:24:17;;;;;;;5.55;2.83;;;;;;;8.65;48.52;101760.91;5038462;28;20080;-72
2023/12/27 00:26:45;;;;;;;5.65;2.72;;;;;;;8.61;48.20;101764.81;5020048;28;20033;-72
2023/12/27 00:29:14;;;;;;;6.60;2.42;;;;;;;8.58;48.33;101758.69;5021870;28;20060;-72
2023/12/27 00:31:42;;;;;;;7.32;2.75;;;;;;;8.55;48.23;101758.88;5026156;28;20107;-72
2023/12/27 00:34:10;;;;;;;8.55;2.70;;;;;;;8.52;48.75;101757.22;5021917;28;20640;-72
2023/12/27 00:36:39;;;;;;;9.10;2.60;;;;;;;8.51;48.04;101751.84;5042377;28;20129;-72
2023/12/27 00:39:10;;;;;;;7.63;2.60;;;;;;;8.47;48.43;101744.84;5023000;28;20689;-72
2023/12/27 00:41:38;;;;;;;7.85;2.58;;;;;;;8.44;48.27;101748.66;5032895;28;20056;-72
2023/12/27 00:44:06;;;;;;;7.22;2.65;;;;;;;8.43;48.22;101743.28;5027013;28;20072;-72
2023/12/27 00:46:35;;;;;;;7.47;2.97;;;;;;;8.40;47.81;101743.50;5022876;28;20034;-72
2023/12/27 00:49:03;;;;;;;7.95;2.97;;;;;;;8.36;48.13;101731.03;5019548;28;20041;-72
2023/12/27 00:51:31;;;;;;;8.20;2.60;;;;;;;8.33;48.43;101729.41;5046673;28;20077;-72
2023/12/27 00:54:00;;;;;;;6.05;2.60;;;;;;;8.31;47.82;101732.22;5038142;28;20038;-72
2023/12/27 00:56:28;;;;;;;5.25;2.75;;;;;;;8.27;48.39;101732.50;5017828;28;20124;-72
2023/12/27 00:58:57;;;;;;;7.38;2.92;;;;;;;8.25;48.49;101738.06;5034630;28;20096;-72
2023/12/27 01:01:25;;;;;;;4.95;2.42;;;;;;;8.24;48.09;101730.88;5024187;28;20044;-72
2023/12/27 01:03:54;;;;;;;7.60;3.00;;;;;;;8.20;48.44;101737.47;5036175;28;20192;-72
2023/12/27 01:06:22;;;;;;;7.22;2.85;;;;;;;8.19;48.25;101738.44;5022983;28;20041;-72
2023/12/27 01:08:50;;;;;;;7.88;3.28;;;;;;;8.18;48.09;101741.25;5043307;28;20130;-72
2023/12/27 01:11:20;;;;;;;6.88;3.00;;;;;;;8.17;48.50;101736.81;5024562;28;20064;-71
2023/12/27 01:13:48;;;;;;;7.15;3.05;;;;;;;8.16;48.22;101748.69;5024791;28;20107;-72
2023/12/27 01:16:16;;;;;;;7.38;3.05;;;;;;;8.14;48.71;101737.88;5025437;28;20064;-72
2023/12/27 01:18:44;;;;;;;6.45;3.05;;;;;;;8.14;48.40;101747.91;5049499;28;20038;-72
2023/12/27 01:21:13;;;;;;;7.50;2.70;;;;;;;8.13;48.38;101741.56;5028579;28;20046;-72
2023/12/27 01:23:42;;;;;;;7.43;3.13;;;;;;;8.13;48.87;101744.28;5024553;28;20046;-72
2023/12/27 01:26:10;;;;;;;6.72;2.92;;;;;;;8.13;48.80;101749.75;5029103;28;20463;-72
2023/12/27 01:28:39;;;;;;;7.47;3.10;;;;;;;8.15;48.57;101738.75;5031813;28;20046;-72
2023/12/27 01:31:09;;;;;;;6.60;3.17;;;;;;;8.13;48.72;101732.47;5025965;28;20060;-72
2023/12/27 01:33:37;;;;;;;6.20;3.08;;;;;;;8.12;48.58;101733.44;5028657;28;20073;-71
2023/12/27 01:36:07;;;;;;;8.25;3.25;;;;;;;8.10;48.33;101728.09;5012133;28;20037;-72
2023/12/27 01:38:35;;;;;;;8.25;3.45;;;;;;;8.05;48.22;101730.25;5008362;28;20046;-72
2023/12/27 01:41:04;;;;;;;8.13;3.08;;;;;;;8.03;48.38;101726.72;5015018;28;20417;-70
2023/12/27 01:43:32;;;;;;;7.43;3.17;;;;;;;8.00;48.02;101726.06;5027664;28;20051;-72
2023/12/27 01:46:02;;;;;;;7.25;3.30;;;;;;;7.98;48.31;101728.00;5029042;28;23118;-72
2023/12/27 01:48:31;;;;;;;7.35;3.55;;;;;;;7.94;47.90;101738.19;5026462;28;20064;-72
2023/12/27 01:51:01;;;;;;;6.55;2.92;;;;;;;7.90;48.17;101732.09;5032350;28;20546;-72
2023/12/27 01:53:29;;;;;;;7.28;2.80;;;;;;;7.89;48.14;101743.06;5022445;28;20038;-72
2023/12/27 01:56:00;;;;;;;7.65;3.55;;;;;;;7.88;48.10;101744.03;5027942;28;20127;-71
2023/12/27 01:58:29;;;;;;;7.45;3.08;;;;;;;7.86;48.05;101740.53;5025826;28;20421;-72
2023/12/27 02:00:58;;;;;;;6.63;3.00;;;;;;;7.84;48.01;101735.19;5024104;28;20050;-72
2023/12/27 02:03:27;;;;;;;8.50;3.17;;;;;;;7.83;47.97;101749.78;5026511;28;20057;-72
2023/12/27 02:05:56;;;;;;;5.93;3.05;;;;;;;7.82;48.42;101744.44;5029973;28;20059;-72
2023/12/27 02:08:25;;;;;;;6.38;3.10;;;;;;;7.80;48.37;101736.34;5020624;28;20037;-72
2023/12/27 02:10:54;;;;;;;6.60;3.30;;;;;;;7.78;47.92;101741.00;5023442;28;20096;-72
2023/12/27 02:13:23;;;;;;;7.05;2.78;;;;;;;7.77;48.37;101743.81;5036004;28;20049;-72
2023/12/27 02:15:52;;;;;;;8.75;3.17;;;;;;;7.77;48.09;101741.97;5034785;28;20066;-71
2023/12/27 02:18:20;;;;;;;8.25;3.85;;;;;;;7.76;48.14;101725.75;5017421;28;20140;-72
2023/12/27 02:20:51;;;;;;;9.05;3.50;;;;;;;7.75;48.37;101726.72;5025530;28;20413;-72
2023/12/27 02:23:21;;;;;;;8.20;3.55;;;;;;;7.73;48.13;101739.56;5026577;28;20064;-72
2023/12/27 02:25:53;;;;;;;5.88;3.53;;;;;;;7.72;48.13;101733.22;5019622;28;20429;-72
2023/12/27 02:28:21;;;;;;;7.35;3.60;;;;;;;7.68;48.31;101728.94;5025530;28;20037;-71
2023/12/27 02:30:49;;;;;;;7.35;3.30;;;;;;;7.66;47.95;101721.84;5040793;28;20874;-72
2023/12/27 02:33:17;;;;;;;7.28;3.55;;;;;;;7.64;48.06;101721.03;5024243;28;20064;-72
2023/12/27 02:35:46;;;;;;;6.05;3.20;;;;;;;7.62;48.36;101706.63;5022666;28;20539;-72
2023/12/27 02:38:14;;;;;;;5.30;3.03;;;;;;;7.61;48.33;101696.69;5024337;28;20488;-72
2023/12/27 02:40:42;;;;;;;6.53;3.05;;;;;;;7.59;48.39;101699.53;5022050;28;20044;-72
2023/12/27 02:43:11;;;;;;;7.55;3.63;;;;;;;7.60;48.23;101692.25;5027544;28;20072;-72
2023/12/27 02:45:39;;;;;;;8.30;3.60;;;;;;;7.56;47.98;101688.81;5026295;28;20038;-72
2023/12/27 02:48:07;;;;;;;7.13;2.88;;;;;;;7.54;47.76;101691.63;5025722;28;20068;-72
2023/12/27 02:50:36;;;;;;;7.30;3.72;;;;;;;7.52;47.80;101681.81;5025417;28;20042;-72
2023/12/27 02:53:04;;;;;;;6.85;3.00;;;;;;;7.50;48.00;101689.22;5035345;28;20041;-71
2023/12/27 02:55:33;;;;;;;8.85;3.30;;;;;;;7.47;47.93;101676.66;5028155;28;20045;-72
2023/12/27 02:58:01;;;;;;;6.70;2.90;;;;;;;7.46;47.81;101679.47;5036735;28;20137;-72
2023/12/27 03:00:34;;;;;;;9.63;3.30;;;;;;;7.45;48.10;101678.59;5020074;28;20050;-72
2023/12/27 03:03:03;;;;;;;8.85;3.00;;;;;;;7.43;48.10;101685.13;5039980;28;20041;-72
2023/12/27 03:05:31;;;;;;;7.32;2.90;;;;;;;7.41;47.98;101693.38;5025231;28;20045;-72
2023/12/27 03:07:59;;;;;;;7.25;3.03;;;;;;;7.42;48.10;101694.25;5021847;28;20045;-72
2023/12/27 03:10:28;;;;;;;6.65;2.80;;;;;;;7.40;48.25;101690.75;5019316;28;20413;-71
2023/12/27 03:12:55;;;;;;;6.03;2.60;;;;;;;7.38;48.13;101685.38;5042859;28;20057;-70
2023/12/27 03:15:24;;;;;;;6.20;3.10;;;;;;;7.39;48.05;101678.09;5024520;28;20049;-71
2023/12/27 03:17:53;;;;;;;6.63;2.88;;;;;;;7.39;48.36;101675.38;5050274;28;20034;-71
2023/12/27 03:20:22;;;;;;;5.38;2.50;;;;;;;7.35;48.15;101661.09;5025819;28;20137;-71
2023/12/27 03:22:50;;;;;;;10.32;2.80;;;;;;;7.34;48.30;101662.06;5015380;28;20153;-71
2023/12/27 03:25:18;;;;;;;8.52;2.85;;;;;;;7.33;48.31;101646.69;5025123;28;20107;-71
2023/12/27 03:27:46;;;;;;;6.78;3.17;;;;;;;7.33;47.92;101643.06;5011828;28;20137;-70
2023/12/27 03:30:15;;;;;;;7.45;2.97;;;;;;;7.31;48.12;101642.28;5025068;28;20493;-71
2023/12/27 03:32:43;;;;;;;7.45;2.95;;;;;;;7.29;47.91;101639.66;5021194;28;20037;-71
2023/12/27 03:35:13;;;;;;;7.95;3.17;;;;;;;7.29;47.95;101641.50;5023953;28;20060;-71
2023/12/27 03:37:41;;;;;;;5.97;2.83;;;;;;;7.26;48.29;101638.97;5021700;28;20513;-71
2023/12/27 03:40:10;;;;;;;5.28;2.50;;;;;;;7.25;47.88;101637.22;5026028;28;20049;-71
2023/12/27 03:42:38;;;;;;;6.15;2.63;;;;;;;7.22;48.34;101634.69;5023220;28;20049;-71
2023/12/27 03:45:07;;;;;;;5.75;2.65;;;;;;;7.22;48.45;101631.97;5014334;28;20042;-71
2023/12/27 03:47:35;;;;;;;5.38;2.65;;;;;;;7.21;47.92;101631.06;5025818;28;20041;-71
2023/12/27 03:50:04;;;;;;;6.07;2.58;;;;;;;7.20;48.17;101627.47;5023148;28;20054;-71
2023/12/27 03:52:34;;;;;;;9.13;3.10;;;;;;;7.20;48.00;101635.66;5013498;28;20513;-71
2023/12/27 03:55:02;;;;;;;6.50;2.78;;;;;;;7.17;47.86;101635.84;5037222;28;20037;-71
2023/12/27 03:57:30;;;;;;;6.20;2.83;;;;;;;7.16;47.92;101633.22;5018058;28;20041;-71
2023/12/27 03:59:58;;;;;;;7.85;2.92;;;;;;;7.16;48.40;101620.50;5028798;28;20703;-71
2023/12/27 04:02:26;;;;;;;7.35;2.58;;;;;;;7.15;47.96;101626.03;5040673;28;20590;-71
2023/12/27 04:04:54;;;;;;;7.63;3.00;;;;;;;7.13;48.00;101615.22;5021761;28;20046;-71
2023/12/27 04:07:22;;;;;;;7.82;3.03;;;;;;;7.13;48.12;101617.94;5024038;28;20583;-71
2023/12/27 04:09:51;;;;;;;8.18;2.90;;;;;;;7.15;47.94;101617.84;5025885;28;20034;-71
2023/12/27 04:12:19;;;;;;;8.23;2.70;;;;;;;7.12;48.31;101605.28;5018712;28;20067;-70
2023/12/27 04:14:49;;;;;;;5.28;2.40;;;;;;;7.10;48.06;101615.44;5015585;28;20049;-70
2023/12/27 04:17:17;;;;;;;6.15;2.75;;;;;;;7.11;48.18;101602.66;5026696;28;20069;-70
2023/12/27 04:19:46;;;;;;;8.40;3.40;;;;;;;7.10;48.41;101607.25;5023364;28;20123;-70
2023/12/27 04:22:13;;;;;;;6.20;2.70;;;;;;;7.09;48.38;101602.78;5021372;28;20037;-70
2023/12/27 04:24:41;;;;;;;7.70;2.70;;;;;;;7.08;48.04;101601.03;5016951;28;20100;-70
2023/12/27 04:27:11;;;;;;;5.25;2.42;;;;;;;7.08;48.08;101598.31;5023074;28;20050;-70
2023/12/27 04:29:39;;;;;;;6.35;2.47;;;;;;;7.07;47.99;101595.66;5019356;28;20050;-71
2023/12/27 04:32:07;;;;;;;6.05;2.70;;;;;;;7.06;47.80;101589.34;5026239;28;20327;-71
2023/12/27 04:34:35;;;;;;;5.30;2.50;;;;;;;7.06;48.07;101583.03;5026707;28;20120;-71
2023/12/27 04:37:04;;;;;;;5.55;2.53;;;;;;;7.05;48.09;101584.88;5025698;28;20502;-71
2023/12/27 04:39:35;;;;;;;5.78;2.60;;;;;;;7.03;48.31;101584.09;5024920;28;20437;-71
2023/12/27 04:42:03;;;;;;;6.38;2.33;;;;;;;7.04;48.29;101583.13;5024497;28;20421;-71
2023/12/27 04:44:33;;;;;;;6.45;2.47;;;;;;;7.06;48.60;101574.88;5026951;28;20111;-71
2023/12/27 04:47:01;;;;;;;7.50;2.75;;;;;;;7.04;48.38;101584.97;5023403;28;20455;-71
2023/12/27 04:49:29;;;;;;;9.32;2.55;;;;;;;7.04;48.64;101574.94;5037268;28;20057;-71
2023/12/27 04:51:58;;;;;;;4.93;2.20;;;;;;;7.05;48.30;101573.09;5012266;28;20513;-71
2023/12/27 04:54:26;;;;;;;6.10;2.47;;;;;;;7.04;48.41;101574.06;5015080;28;20046;-71
2023/12/27 04:56:55;;;;;;;7.18;2.80;;;;;;;7.04;48.25;101574.06;5021195;28;20045;-71
2023/12/27 04:59:23;;;;;;;6.55;2.65;;;;;;;7.04;48.40;101574.94;5022915;28;20060;-72
2023/12/27 05:01:54;;;;;;;6.65;2.30;;;;;;;7.04;48.19;101574.94;5030659;28;20104;-71
2023/12/27 05:04:23;;;;;;;6.72;2.60;;;;;;;7.02;48.39;101568.75;5038392;28;20038;-71
2023/12/27 05:06:51;;;;;;;6.50;2.67;;;;;;;7.03;48.45;101570.47;5035424;28;20608;-70
2023/12/27 05:09:19;;;;;;;5.35;2.00;;;;;;;7.04;48.54;101574.06;5015397;28;20508;-71
2023/12/27 05:11:47;;;;;;;6.95;2.25;;;;;;;7.04;48.44;101565.91;5022401;28;20052;-71
2023/12/27 05:14:16;;;;;;;5.35;2.28;;;;;;;7.06;48.51;101566.69;5027658;28;20136;-71
2023/12/27 05:16:46;;;;;;;4.93;2.30;;;;;;;7.06;48.25;101569.41;5017928;28;20049;-71
2023/12/27 05:19:16;;;;;;;6.15;2.03;;;;;;;7.04;48.47;101561.34;5023747;28;20046;-71
2023/12/27 05:21:44;;;;;;;4.88;2.03;;;;;;;7.05;48.31;101562.22;5017746;28;20444;-71
2023/12/27 05:24:12;;;;;;;6.80;2.38;;;;;;;7.02;48.77;101565.16;5022303;28;20045;-72
2023/12/27 05:26:40;;;;;;;4.80;2.30;;;;;;;7.04;48.54;101557.75;5022178;28;20530;-70
2023/12/27 05:29:08;;;;;;;7.85;2.30;;;;;;;7.06;48.65;101558.53;5028783;28;20755;-71
2023/12/27 05:31:36;;;;;;;7.78;2.42;;;;;;;7.06;48.85;101553.97;5021000;28;20121;-71
2023/12/27 05:34:04;;;;;;;5.75;2.42;;;;;;;7.07;49.05;101552.13;5025378;28;20409;-71
2023/12/27 05:36:34;;;;;;;5.22;2.10;;;;;;;7.09;48.75;101550.19;5025217;28;20042;-71
2023/12/27 05:39:03;;;;;;;6.15;2.38;;;;;;;7.09;48.92;101544.75;5019981;28;20049;-71
2023/12/27 05:41:31;;;;;;;6.22;2.35;;;;;;;7.09;48.83;101537.47;5031630;28;20037;-71
2023/12/27 05:44:01;;;;;;;5.25;2.60;;;;;;;7.13;48.98;101530.84;5024240;28;20077;-71
2023/12/27 05:46:29;;;;;;;9.60;2.13;;;;;;;7.13;48.76;101528.13;5022266;28;20060;-71
2023/12/27 05:48:57;;;;;;;6.20;2.00;;;;;;;7.15;48.89;101531.63;5023364;28;20042;-71
2023/12/27 05:51:25;;;;;;;6.05;2.05;;;;;;;7.16;49.02;101533.38;5024166;28;20055;-71
2023/12/27 05:53:54;;;;;;;4.78;1.70;;;;;;;7.19;48.93;101521.41;5033017;28;20038;-71
2023/12/27 05:56:22;;;;;;;5.63;2.17;;;;;;;7.19;48.80;101525.00;5022708;28;20068;-70
2023/12/27 05:58:50;;;;;;;4.28;1.83;;;;;;;7.19;48.85;101519.56;5017860;28;20125;-71
2023/12/27 06:01:19;;;;;;;5.32;1.83;;;;;;;7.22;49.16;101514.91;5029511;28;20049;-71
2023/12/27 06:03:47;;;;;;;5.88;1.90;;;;;;;7.21;48.69;101514.00;5026554;28;20041;-71
2023/12/27 06:06:15;;;;;;;6.85;2.28;;;;;;;7.22;48.73;101515.78;5029739;28;20493;-70
2023/12/27 06:08:43;;;;;;;5.78;2.17;;;;;;;7.23;49.00;101519.38;5032938;28;20041;-71
2023/12/27 06:11:12;;;;;;;5.63;1.85;;;;;;;7.25;49.29;101517.44;5027815;28;20045;-71
2023/12/27 06:13:40;;;;;;;8.55;2.10;;;;;;;7.24;49.32;101516.56;5041037;28;20046;-70
2023/12/27 06:16:10;;;;;;;5.88;2.13;;;;;;;7.27;49.44;101520.94;5025668;28;20687;-70
2023/12/27 06:18:38;;;;;;;3.85;1.98;;;;;;;7.26;49.54;101511.91;5038672;28;20572;-71
2023/12/27 06:21:06;;;;;;;4.47;2.15;;;;;;;7.28;49.52;101515.38;5021184;28;20127;-71
2023/12/27 06:23:34;;;;;;;4.35;1.92;;;;;;;7.30;49.48;101502.53;5027036;28;20136;-71
2023/12/27 06:26:02;;;;;;;5.60;2.10;;;;;;;7.32;49.31;101503.34;5029350;28;20060;-71
2023/12/27 06:28:32;;;;;;;6.18;2.10;;;;;;;7.33;49.38;101502.38;5017919;28;20103;-71
2023/12/27 06:31:00;;;;;;;4.53;1.83;;;;;;;7.34;49.41;101489.63;5023926;28;20124;-73
2023/12/27 06:33:28;;;;;;;5.80;2.10;;;;;;;7.35;49.46;101494.09;5029214;28;20836;-69
2023/12/27 06:35:56;;;;;;;4.97;1.98;;;;;;;7.35;49.62;101485.94;5021561;28;20077;-69
2023/12/27 06:38:24;;;;;;;5.68;2.20;;;;;;;7.35;49.48;101481.38;5018922;28;20049;-69
2023/12/27 06:40:52;;;;;;;5.97;2.10;;;;;;;7.36;49.33;101480.34;5025423;28;20056;-69
2023/12/27 06:43:20;;;;;;;4.22;1.95;;;;;;;7.38;49.63;101485.72;5025071;28;20056;-69
2023/12/27 06:45:50;;;;;;;4.68;1.88;;;;;;;7.40;49.86;101478.31;5026289;28;20045;-69
2023/12/27 06:48:18;;;;;;;4.50;1.95;;;;;;;7.40;49.52;101478.31;5024473;28;20046;-69
2023/12/27 06:50:46;;;;;;;5.63;2.20;;;;;;;7.42;49.61;101473.66;5028181;28;20282;-69
2023/12/27 06:53:14;;;;;;;7.68;1.92;;;;;;;7.43;49.68;101468.13;5022269;28;20417;-69
2023/12/27 06:55:43;;;;;;;5.07;2.00;;;;;;;7.44;49.77;101467.13;5020578;28;20034;-69
2023/12/27 06:58:11;;;;;;;4.80;2.05;;;;;;;7.46;49.94;101457.00;5023957;28;20134;-69
2023/12/27 07:00:38;;;;;;;4.03;2.08;;;;;;;7.48;49.58;101459.66;5017612;28;20119;-69
2023/12/27 07:03:08;;;;;;;4.63;2.30;;;;;;;7.49;50.08;101455.94;5015916;28;20050;-69
2023/12/27 07:08:24;;;;;;;6.38;2.60;;;;;;;7.46;50.09;101431.63;5042150;28;20407;-70
2023/12/27 07:10:52;;;;;;;4.85;2.20;;;;;;;7.48;50.03;101418.78;5046299;28;20079;-71
2023/12/27 07:13:19;;;;;;;3.55;2.03;;;;;;;7.48;49.98;101413.34;5041377;28;20151;-71
2023/12/27 07:15:47;;;;;;;4.30;2.13;;;;;;;7.48;50.17;101414.22;5039676;28;20040;-71
2023/12/27 07:18:17;;;;;;;4.32;2.30;;;;;;;7.50;50.21;101416.84;5025032;28;20076;-70
2023/12/27 07:20:45;;;;;;;5.32;2.47;;;;;;;7.49;50.47;101434.16;5038337;28;20042;-70
2023/12/27 07:23:13;;;;;;;4.95;2.20;;;;;;;7.49;50.08;101429.59;5039681;28;20053;-72
2023/12/27 07:25:41;;;;;;;6.22;2.80;;;;;;;7.50;50.11;101427.75;5033164;28;20385;-69
2023/12/27 07:28:09;;;;;;;5.05;2.50;;;;;;;7.50;50.28;101423.16;5040716;28;20064;-72
2023/12/27 07:30:37;;;;;;;4.20;2.35;;;;;;;7.51;50.57;101414.03;5022994;28;20145;-71
2023/12/27 07:33:05;;;;;;;6.50;2.60;;;;;;;7.52;50.20;101417.59;5020501;28;20060;-71
2023/12/27 07:35:35;;;;;;;5.20;2.50;;;;;;;7.53;50.31;101414.78;5023670;28;20598;-72
2023/12/27 07:38:03;;;;;;;4.63;2.72;;;;;;;7.51;50.50;101414.03;5034005;28;20064;-72
2023/12/27 07:40:31;;;;;;;6.47;2.55;;;;;;;7.52;50.32;101413.03;5028819;28;20091;-69
2023/12/27 07:42:59;;;;;;;5.28;2.50;;;;;;;7.54;50.86;101416.53;5007537;28;20040;-71
2023/12/27 07:45:29;;;;;;;5.63;2.63;;;;;;;7.54;50.60;101421.09;5045328;28;20447;-71
2023/12/27 07:47:57;;;;;;;4.53;2.38;;;;;;;7.54;51.01;101419.25;5042440;28;20370;-72
2023/12/27 07:50:25;;;;;;;7.22;2.67;;;;;;;7.54;50.98;101412.94;5029455;28;20045;-70
2023/12/27 07:52:54;;;;;;;5.18;2.30;;;;;;;7.55;51.02;101410.13;5019586;28;20584;-69
2023/12/27 07:55:22;;;;;;;6.75;2.80;;;;;;;7.54;51.18;101400.19;5015274;28;20140;-70
2023/12/27 07:57:50;;;;;;;4.03;2.42;;;;;;;7.54;51.33;101402.91;4989291;28;20620;-71
2023/12/27 08:00:19;;;;;;;6.82;2.90;;;;;;;7.54;51.47;101400.19;5029414;28;20045;-71
2023/12/27 08:02:47;;;;;;;5.78;2.50;;;;;;;7.56;51.54;101409.13;5034757;28;20049;-72
2023/12/27 08:05:16;;;;;;;4.18;2.10;;;;;;;7.55;51.50;101415.56;5046575;28;20118;-72
2023/12/27 08:07:44;;;;;;;6.30;2.50;;;;;;;7.56;51.55;101411.00;5026219;28;20120;-72
2023/12/27 08:10:13;;;;;;;4.88;2.33;;;;;;;7.59;51.75;101410.78;5039884;28;20091;-72
2023/12/27 08:12:42;;;;;;;6.65;2.50;;;;;;;7.58;51.60;101403.59;5036203;28;20412;-72
2023/12/27 08:15:11;;;;;;;6.07;2.40;;;;;;;7.58;51.58;101409.91;5023251;28;20061;-72
2023/12/27 08:17:39;;;;;;;3.92;2.10;;;;;;;7.60;51.79;101398.91;5054755;28;20626;-72
2023/12/27 08:20:08;;;;;;;4.38;2.40;;;;;;;7.61;51.91;101403.38;5046925;28;20046;-71
2023/12/27 08:22:36;;;;;;;5.35;2.20;;;;;;;7.61;51.85;101402.50;5025072;28;20499;-71
2023/12/27 08:25:12;;;;;;;4.20;2.10;;;;;;;7.63;51.87;101395.09;5039287;28;20041;-70
2023/12/27 08:27:41;;;;;;;4.95;2.20;;;;;;;7.63;52.08;101401.44;5046819;28;20036;-72
2023/12/27 08:30:10;;;;;;;5.60;2.30;;;;;;;7.60;51.99;101393.44;5024533;28;20041;-72
2023/12/27 08:32:38;;;;;;;4.53;2.42;;;;;;;7.63;52.32;101386.94;5048256;28;20048;-73
2023/12/27 08:35:06;;;;;;;5.47;2.50;;;;;;;7.63;52.42;101400.56;5044929;28;20044;-73
2023/12/27 08:37:34;;;;;;;5.35;2.58;;;;;;;7.63;52.74;101406.00;5048152;28;20569;-72
2023/12/27 08:40:05;;;;;;;4.88;2.15;;;;;;;7.64;52.80;101407.75;5037178;28;20543;-72
2023/12/27 08:42:33;;;;;;;4.30;2.00;;;;;;;7.63;52.70;101409.59;5040937;28;20772;-72
2023/12/27 08:45:02;;;;;;;4.60;2.17;;;;;;;7.65;52.81;101390.44;5024973;28;20041;-73
2023/12/27 08:47:30;;;;;;;4.40;2.10;;;;;;;7.65;52.26;101395.88;5036904;28;20408;-73
2023/12/27 08:49:58;;;;;;;5.93;2.25;;;;;;;7.65;52.69;101388.59;5029682;28;20040;-72
2023/12/27 08:52:32;;;;;;;3.70;2.10;;;;;;;7.67;53.01;101389.38;5038669;28;20056;-72
2023/12/27 08:55:02;;;;;;;4.63;2.05;;;;;;;7.70;52.80;101393.72;5021737;28;20914;-72
2023/12/27 08:57:31;;;;;;;4.28;2.10;;;;;;;7.70;52.38;101389.13;5028753;28;20057;-73
2023/12/27 09:00:01;;;;;;;5.43;2.20;;;;;;;7.74;52.73;101381.66;5037740;28;20073;-73
2023/12/27 09:02:30;;;;;;;3.78;2.00;;;;;;;7.73;52.63;101377.16;5026707;28;20033;-71
2023/12/27 09:04:58;;;;;;;5.05;2.22;;;;;;;7.73;52.99;101380.78;5032920;28;20045;-72
2023/12/27 09:07:26;;;;;;;4.75;2.35;;;;;;;7.74;52.82;101368.91;5041117;28;20049;-72
2023/12/27 09:09:53;;;;;;;4.72;2.47;;;;;;;7.75;52.78;101372.50;5039569;28;20048;-72
2023/12/27 09:12:25;;;;;;;3.30;1.90;;;;;;;7.76;52.68;101368.81;5046482;28;20049;-72
2023/12/27 09:14:53;;;;;;;4.88;2.00;;;;;;;7.74;53.21;101371.63;5025177;28;20049;-72
2023/12/27 09:17:23;;;;;;;4.45;2.20;;;;;;;7.78;52.73;101361.38;5035361;28;20422;-74
2023/12/27 09:19:56;;;;;;;4.10;2.10;;;;;;;7.79;53.13;101360.41;5022198;28;20041;-74
2023/12/27 09:22:24;;;;;;;4.28;1.90;;;;;;;7.79;53.18;101363.13;4995168;28;20050;-74
2023/12/27 09:24:52;;;;;;;3.95;2.13;;;;;;;7.80;53.22;101356.69;5023932;28;20041;-74
2023/12/27 09:27:20;;;;;;;4.40;1.90;;;;;;;7.80;53.33;101363.03;4998531;28;20571;-74
2023/12/27 09:29:48;;;;;;;3.55;2.08;;;;;;;7.82;53.32;101362.94;4998699;28;20041;-74
2023/12/27 09:32:16;;;;;;;4.25;1.90;;;;;;;7.83;53.37;101364.69;5016795;28;20053;-75
2023/12/27 09:34:45;;;;;;;3.85;1.80;;;;;;;7.86;53.01;101359.88;5005039;28;20048;-76
2023/12/27 09:37:13;;;;;;;4.00;2.05;;;;;;;7.85;53.36;101358.13;5014464;28;20053;-76
2023/12/27 09:39:41;;;;;;;4.15;2.10;;;;;;;7.85;53.24;101347.22;5020056;28;20052;-75
2023/12/27 09:42:09;;;;;;;5.45;2.10;;;;;;;7.87;53.33;101358.91;5012661;28;20064;-75
2023/12/27 09:44:39;;;;;;;3.70;1.98;;;;;;;7.89;53.34;101359.66;5018844;28;20068;-76
2023/12/27 09:47:10;;;;;;;4.40;2.38;;;;;;;7.89;53.50;101358.81;5027189;28;20103;-75
2023/12/27 09:49:38;;;;;;;4.70;2.30;;;;;;;7.90;53.17;101347.81;5011858;28;20076;-76
2023/12/27 09:52:08;;;;;;;4.25;2.50;;;;;;;7.92;53.56;101348.56;5015211;28;20126;-75
2023/12/27 09:54:36;;;;;;;4.47;2.45;;;;;;;7.92;53.17;101358.59;4994878;28;20044;-74
2023/12/27 09:57:05;;;;;;;4.10;2.22;;;;;;;7.95;53.08;101345.63;5014177;28;20396;-76
2023/12/27 09:59:39;;;;;;;4.25;2.28;;;;;;;7.98;53.33;101330.03;5014235;28;20521;-75
2023/12/27 10:02:14;;;;;;;4.20;1.95;;;;;;;7.98;53.40;101327.31;5014009;28;20045;-75
2023/12/27 10:04:48;;;;;;;4.65;2.35;;;;;;;8.00;53.58;101341.72;5016090;28;20743;-75
2023/12/27 10:07:19;;;;;;;4.25;1.92;;;;;;;8.01;53.48;101355.25;5013265;28;20045;-76
2023/12/27 10:09:48;;;;;;;3.78;2.05;;;;;;;8.00;53.37;101350.78;5013351;28;20175;-75
2023/12/27 10:12:17;;;;;;;4.28;2.30;;;;;;;8.02;53.25;101361.53;5015555;28;20086;-75
2023/12/27 10:14:47;;;;;;;3.78;2.30;;;;;;;8.04;53.51;101346.84;5014014;28;20053;-76
2023/12/27 10:17:15;;;;;;;4.65;2.58;;;;;;;8.04;53.74;101338.66;5036815;28;20504;-74
2023/12/27 10:19:45;;;;;;;6.63;2.80;;;;;;;8.07;53.52;101326.69;5045862;28;20049;-74
2023/12/27 10:22:16;;;;;;;6.00;2.70;;;;;;;8.09;53.54;101308.38;5041229;28;20105;-74
2023/12/27 10:24:46;;;;;;;4.32;2.45;;;;;;;8.09;53.81;101298.34;5039189;28;20036;-74
2023/12/27 10:27:14;;;;;;;4.43;2.30;;;;;;;8.10;53.47;101301.91;5045298;28;20138;-73
2023/12/27 10:29:48;;;;;;;5.43;2.60;;;;;;;8.12;53.48;101279.03;5015959;28;20533;-74
2023/12/27 10:32:17;;;;;;;4.38;2.10;;;;;;;8.13;53.49;101282.63;5015121;28;20064;-73
2023/12/27 10:34:46;;;;;;;4.20;1.95;;;;;;;8.12;53.66;101268.13;5032399;28;20164;-75
2023/12/27 10:37:17;;;;;;;3.45;1.65;;;;;;;8.14;53.75;101254.41;5042868;28;20044;-74
2023/12/27 10:39:46;;;;;;;3.78;2.25;;;;;;;8.14;53.75;101271.66;5027450;28;20041;-74
2023/12/27 10:42:16;;;;;;;4.97;1.95;;;;;;;8.15;53.80;101261.63;5042158;28;20135;-74
2023/12/27 10:44:45;;;;;;;4.95;2.45;;;;;;;8.16;53.69;101256.06;5043018;28;20069;-74
2023/12/27 10:47:17;;;;;;;4.22;2.05;;;;;;;8.18;54.06;101253.19;5028470;28;20119;-74
2023/12/27 10:49:47;;;;;;;4.23;1.70;;;;;;;8.18;53.95;101259.53;5042827;28;20049;-75
2023/12/27 10:52:17;;;;;;;3.53;1.85;;;;;;;8.19;54.21;101257.66;5043404;28;20049;-75
2023/12/27 10:54:51;;;;;;;4.57;2.10;;;;;;;8.20;54.10;101233.03;5042087;28;20415;-75
2023/12/27 10:57:21;;;;;;;3.08;1.65;;;;;;;8.22;54.01;101235.66;5029257;28;22591;-74
2023/12/27 10:59:51;;;;;;;4.85;2.03;;;;;;;8.22;53.65;101231.06;5044148;28;20086;-75
2023/12/27 11:02:22;;;;;;;3.97;2.05;;;;;;;8.25;53.83;101240.91;5039804;28;20037;-74
2023/12/27 11:04:52;;;;;;;4.20;2.10;;;;;;;8.26;54.20;101238.03;5027646;28;20049;-75
2023/12/27 11:07:23;;;;;;;3.08;1.80;;;;;;;8.28;53.77;101246.09;5044388;28;20064;-74
2023/12/27 11:09:56;;;;;;;3.20;1.70;;;;;;;8.29;53.79;101246.00;5045111;28;20047;-75
2023/12/27 11:12:27;;;;;;;4.65;1.70;;;;;;;8.29;53.80;101240.56;5028836;28;20053;-75
2023/12/27 11:14:59;;;;;;;4.30;1.83;;;;;;;8.32;54.10;101228.56;5022321;28;20575;-74
2023/12/27 11:17:28;;;;;;;4.18;1.95;;;;;;;8.32;54.00;101228.56;5043905;28;20135;-74
2023/12/27 11:19:57;;;;;;;3.45;1.88;;;;;;;8.38;53.78;101236.28;5038029;28;20041;-74
2023/12/27 11:22:25;;;;;;;3.30;1.60;;;;;;;8.40;54.02;101233.47;5039068;28;21141;-75
2023/12/27 11:24:56;;;;;;;3.58;1.52;;;;;;;8.42;53.93;101221.47;5045933;28;20500;-75
2023/12/27 11:27:25;;;;;;;3.55;1.60;;;;;;;8.44;53.87;101210.41;5030252;28;20102;-75
2023/12/27 11:29:55;;;;;;;2.90;1.60;;;;;;;8.46;53.94;101203.00;5037924;28;20048;-75
2023/12/27 11:32:23;;;;;;;3.65;1.60;;;;;;;8.49;54.24;101202.78;5045745;28;20111;-75
2023/12/27 11:34:51;;;;;;;2.80;1.40;;;;;;;8.51;54.04;101193.47;5043752;28;20099;-74
2023/12/27 11:37:19;;;;;;;2.70;1.60;;;;;;;8.54;53.94;101203.31;5024970;28;20044;-75
2023/12/27 11:39:48;;;;;;;3.58;1.70;;;;;;;8.55;54.01;101191.41;5044148;28;20056;-75
2023/12/27 11:42:17;;;;;;;2.90;1.48;;;;;;;8.58;53.69;101196.66;5042899;28;20041;-75
2023/12/27 11:44:48;;;;;;;2.20;1.30;;;;;;;8.60;54.25;101195.53;5042039;28;20397;-75